Terminal Aerodrome Forecast
Issued by NWS

Home | Current Version | Previous Version | Text Only | Print | Product List | Glossary On
Versions: 1 2 3 4 5 6 7 8 9 10 11 12 13 14 15 16 17 18 19 20
000
FTUS44 KOUN 060520
TAFHBR
TAF
KHBR 060520Z 0606/0706 16008KT 3SM BR BKN004
      TEMPO 0606/0609 1/2SM FG
     FM060900 35015G25KT 4SM BR BKN010
     FM061200 36019G29KT P6SM SCT010 BKN150
     FM062300 03011KT P6SM BKN250
     FM070300 07007KT P6SM BKN250=

USA.gov is the U.S. government's official web portal to all federal, state and local government web resources and services.